This is the latest recevied weather packets stored in our database for station/object K8RLH. If no packets are shown the sender has not sent any weather packets the latest 10 day(s).
| Time | Temp. | Humidity | Pressure | Rain* | Wind** | Luminosity | Snow |
|---|---|---|---|---|---|---|---|
| 1778073682 | 18.33° C | 78% | 1016.6 hPa | 0 mm | - | 57 W/m² | - |
| 1778073380 | 18.33° C | 77% | 1017 hPa | 0 mm | - | 42 W/m² | - |
| 1778073075 | 18.33° C | 77% | 1016.8 hPa | 0 mm | - | 60 W/m² | - |
| 1778072773 | 18.33° C | 76% | 1017.1 hPa | 0 mm | - | 38 W/m² | - |
| 1778072470 | 18.33° C | 76% | 1017.2 hPa | 0 mm | - | 40 W/m² | - |
| 1778072168 | 18.33° C | 76% | 1017.2 hPa | 0 mm | - | 36 W/m² | - |
| 1778071866 | 18.33° C | 77% | 1017.1 hPa | 0 mm | - | 38 W/m² | - |
| 1778071563 | 18.33° C | 77% | 1017 hPa | 0 mm | - | 28 W/m² | - |
| 1778071261 | 18.33° C | 76% | 1017 hPa | 0 mm | - | 18 W/m² | - |
| 1778070958 | 18.33° C | 76% | 1017 hPa | 0 mm | - | 22 W/m² | - |
| 1778070657 | 18.33° C | 76% | 1017 hPa | 0 mm | - | 24 W/m² | - |
| 1778070353 | 18.33° C | 76% | 1016.8 hPa | 0 mm | - | 38 W/m² | - |
| 1778070051 | 18.33° C | 76% | 1016.7 hPa | 0 mm | - | 52 W/m² | - |
| 1778069748 | 18.33° C | 76% | 1016.4 hPa | 0 mm | - | 53 W/m² | - |
| 1778069444 | 18.33° C | 76% | 1016.5 hPa | 0 mm | - | 54 W/m² | - |
| 1778069143 | 18.33° C | 76% | 1016.4 hPa | 0 mm | - | 42 W/m² | - |
| 1778068840 | 18.33° C | 76% | 1016.6 hPa | 0 mm | - | 47 W/m² | - |
| 1778068538 | 17.78° C | 76% | 1016.7 hPa | 0 mm | - | 33 W/m² | - |
| 1778068236 | 17.78° C | 76% | 1016.7 hPa | 0 mm | - | 29 W/m² | - |
| 1778067933 | 17.78° C | 76% | 1016.8 hPa | 0 mm | - | 14 W/m² | - |
| 1778067631 | 18.33° C | 76% | 1016.4 hPa | 0 mm | - | 14 W/m² | - |
| 1778067329 | 18.33° C | 75% | 1016.5 hPa | 0 mm | - | 15 W/m² | - |
| 1778067026 | 18.33° C | 75% | 1016.5 hPa | 0 mm | - | 11 W/m² | - |
| 1778066722 | 18.33° C | 74% | 1016.6 hPa | 0 mm | - | 7 W/m² | - |
| 1778066420 | 18.33° C | 74% | 1016.6 hPa | 0 mm | - | 9 W/m² | - |
* Rain latest hour (hover to see other rain measurements)
** Current wind speed in m/s (hover to see current wind gust speed)